Relevés horaires Chievres (Belgique)


Relevés horaires à Chievres - Mercredi 23 Mars 2022
Heure UTC1 Température [°C] Vent [km/h] Hum. [%] Pres.4 [hPa] Visi. [Km] Nébu. [octa] Préc.5 [mm] Cond.
2m. Res. Ros. Dir.2 Vit. Moy. Raf.3
23:00 5.4 5.4 1.4 NNO 1.9 -- 1.9 75 1030.4(0.0/3h) 13 -- -- --
22:00 7.0 7.0 1.7 NNO 1.9 -- 7.4 69 1030.4(0.4/3h) 13 -- -- --
21:00 7.9 7.9 1.5 NNO 1.9 -- 3.7 64 1030.2(0.6/3h) 16 -- -- --
20:00 9.7 9.7 1.3 NNO 1.9 -- 3.7 56 1030.2(0.7/3h) 19 -- -- --
19:00 12.8 12.8 -0.4 NNO 1.9 -- 3.7 40 1029.7(0.4/3h) 20 -- -- --
18:00 15.1 15.1 0.2 N 3.7 -- 7.4 36 1029.4(-0.1/3h) 20 -- -- --
17:00 16.2 16.2 1.5 N 3.7 -- 7.4 37 1029.2(-0.6/3h) 15 -- -- --
16:00 17.4 17.4 3.1 NNO 1.9 -- 5.6 38 1029.2(-1.0/3h) 19 -- -- --
15:00 17.9 17.9 -1.0 NNO 1.9 -- 7.4 28 1029.5(-1.3/3h) 20 -- -- --
14:00 17.8 17.8 0.8 NNO 1.9 -- 7.4 32 1029.7(-1.3/3h) 20 -- -- --
13:00 18.1 18.1 -0.3 NNO 3.7 -- 5.6 29 1030.2(-0.9/3h) 20 -- -- --
12:00 17.6 17.6 2.1 NNO 1.9 -- 5.6 35 1030.9(-0.3/3h) 17 -- -- --
11:00 17.0 17.0 2.6 NNO 1.9 -- 3.7 38 1031.2(0.2/3h) 17 -- -- --
10:00 15.6 15.6 4.2 NNO 1.9 -- 3.7 47 1031.2(0.7/3h) 15 -- -- --
09:00 12.5 12.5 4.3 NNO 1.9 -- 3.7 57 1031.2(1.0/3h) 12 -- -- --
08:00 9.7 9.7 4.7 NNO 1.9 -- 3.7 71 1031.2(0.9/3h) 11 -- -- --
07:00 4.5 4.5 2.6 NNO 1.9 -- 3.7 87 1030.7(0.8/3h) 7 -- -- Du brouillard ou du brouillard glacé (plus correctement designé sous le nom de brume) est observé et la visibilité n'est ni inférieure à 5/8 de mille ni supérieure à 6 milles
06:00 2.1 2.1 0.2 NNO 1.9 -- 9.3 87 1030.5(0.8/3h) 8 -- -- Du brouillard ou du brouillard glacé (plus correctement designé sous le nom de brume) est observé et la visibilité n'est ni inférieure à 5/8 de mille ni supérieure à 6 milles
05:00 3.0 3.0 0.9 NNO 1.9 -- 9.3 86 1030.2(0.5/3h) 9 -- -- --
04:00 3.4 3.4 1.0 NNO 1.9 -- 3.7 84 1030(0.0/3h) 8 -- -- --
03:00 4.2 4.2 1.9 NNO 1.9 -- 3.7 85 1029.7(-0.2/3h) 12 -- -- --
02:00 4.6 4.6 2.0 NNO 1.9 -- 1.9 83 1029.7(-0.3/3h) 12 -- -- --
01:00 5.5 5.5 2.1 NNO 1.9 -- 1.9 79 1029.9(-0.1/3h) 12 -- -- --
00:00 6.0 6.0 1.7 NNO 0.0 -- 7.4 74 1029.9(-0.1/3h) 13 -- -- --

1 Coordinated Universal Time. Actuellement il est 16:00 locale et 15:00 UTC.

2 Le vent souffle depuis la direction indiquée vers la direction oposée.

3 Les rafales max. sont disponible 40 min après l'heure du relevé.

4 Pour les stations d'altitude (plus de 600m) le géopotentiel du niveau le plus proche de la pression obligatoire est indiqué.

5 Les stations disposant d'un diffuseur peuvent indiquer "trace". Cela signifie que des précipitations ont touchés le sol mais que la quantité est inférieure à 0.1 mm.

Récapitulatif de la journée
Température [°C] Vent [km/h] Ensoleillement4 [h] Precipitations totale5 [mm] Pression [Hpa]
Min1 Max.2 Moy.3 Max. Min Max.
2.1 19.2 0 9.3 0 h 0 min 0 1029.2 1031.2

1 Température minimale relevée entre 18:00 UTC la veille et 18:00 UTC le jour donné.

2 Température maximale relevée entre 06:00 UTC le jour donné et 06:00 UTC le lendemain.

3 Vent moyen de la journée basé sur les relevés horaires.

4 Ensoleillement en heures relevé entre 06:00 UTC la veille et 06:00 UTC le jour donné.

5 Précipitations totales tombées entre 06:00 UTC la jour donné et 06:00 UTC le lendemain.

Graphiques horaires